createdAt,value
2022-08-19T00:00:40.884Z,99505.59
2022-08-19T00:01:44.903Z,99504.66
2022-08-19T00:02:55.435Z,99498.50
2022-08-19T00:04:00.464Z,99504.66
2022-08-19T00:05:02.940Z,99501.16
2022-08-19T00:06:04.805Z,99495.00
2022-08-19T00:07:07.362Z,99495.00
2022-08-19T00:08:08.970Z,99495.13
2022-08-19T00:09:13.350Z,99488.00
2022-08-19T00:10:16.637Z,99493.44
2022-08-19T00:11:26.091Z,99489.50
2022-08-19T00:12:28.317Z,99492.56
2022-08-19T00:13:30.043Z,99494.53
2022-08-19T00:14:32.364Z,99502.78
2022-08-19T00:15:34.477Z,99493.75
2022-08-19T00:16:36.990Z,99500.38
2022-08-19T00:17:42.065Z,99501.22
2022-08-19T00:18:43.675Z,99506.53
2022-08-19T00:19:45.225Z,99504.59
2022-08-19T00:20:46.937Z,99495.78
2022-08-19T00:21:48.624Z,99519.50
2022-08-19T00:22:50.425Z,99493.72
2022-08-19T00:23:52.054Z,99497.47
2022-08-19T00:24:53.721Z,99493.31
2022-08-19T00:25:56.328Z,99495.84
2022-08-19T00:27:25.101Z,99497.66
2022-08-19T00:28:21.561Z,99491.63
2022-08-19T00:29:24.781Z,99485.00
2022-08-19T00:30:28.535Z,99486.72
2022-08-19T00:31:30.165Z,99493.31
2022-08-19T00:32:31.792Z,99495.00
2022-08-19T00:33:35.094Z,99492.34
2022-08-19T00:34:36.678Z,99504.50
2022-08-19T00:35:39.413Z,99498.25
2022-08-19T00:36:42.627Z,99503.41
2022-08-19T00:37:44.586Z,99502.44
2022-08-19T00:38:47.389Z,99510.28
2022-08-19T00:39:49.416Z,99492.34
2022-08-19T00:40:51.255Z,99497.00
2022-08-19T00:41:52.847Z,99451.00
2022-08-19T00:42:54.785Z,99491.94
2022-08-19T00:44:02.211Z,99488.44
2022-08-19T00:45:11.601Z,99479.66
2022-08-19T00:46:13.211Z,99477.00
2022-08-19T00:47:15.221Z,99464.69
2022-08-19T00:48:19.092Z,99462.63
2022-08-19T00:49:53.313Z,99453.13
2022-08-19T00:50:56.412Z,99457.88
2022-08-19T00:52:03.899Z,99466.69
2022-08-19T00:53:05.471Z,99459.97
2022-08-19T00:54:07.044Z,99467.34
2022-08-19T00:55:12.637Z,99473.66
2022-08-19T00:56:14.288Z,99473.66
2022-08-19T00:57:19.690Z,99485.94
2022-08-19T00:58:25.426Z,99485.78
2022-08-19T00:59:53.574Z,99481.00
2022-08-19T01:00:50.477Z,99489.19
2022-08-19T01:01:53.280Z,99492.78
2022-08-19T01:02:55.493Z,99489.44
2022-08-19T01:03:58.726Z,99490.38
2022-08-19T01:05:03.954Z,99492.34
2022-08-19T01:06:06.636Z,99484.19
2022-08-19T01:07:09.155Z,99493.44
2022-08-19T01:08:19.306Z,99484.75
2022-08-19T01:09:20.844Z,99489.94
2022-08-19T01:10:29.980Z,99496.09
2022-08-19T01:11:37.585Z,99499.59
2022-08-19T01:12:40.317Z,99474.94
2022-08-19T01:13:49.042Z,99492.59
2022-08-19T01:14:52.302Z,99492.22
2022-08-19T01:16:05.026Z,99492.88
2022-08-19T01:17:09.312Z,99476.88
2022-08-19T01:18:14.659Z,99474.78
2022-08-19T01:19:44.124Z,99474.53
2022-08-19T01:20:47.028Z,99468.38
2022-08-19T01:22:14.479Z,99454.22
2022-08-19T01:23:18.438Z,99477.63
2022-08-19T01:24:19.991Z,99479.44
2022-08-19T01:25:27.726Z,99481.53
2022-08-19T01:26:31.363Z,99478.88
2022-08-19T01:27:45.939Z,99479.97
2022-08-19T01:28:49.658Z,99481.06
2022-08-19T01:29:53.407Z,99475.63
2022-08-19T01:30:55.776Z,99474.22
2022-08-19T01:31:58.640Z,99478.28
2022-08-19T01:33:01.444Z,99480.09
2022-08-19T01:34:04.175Z,99482.88
2022-08-19T01:35:06.319Z,99492.66
2022-08-19T01:36:11.731Z,99478.41
2022-08-19T01:37:14.643Z,99474.06
2022-08-19T01:38:28.138Z,99479.50
2022-08-19T01:39:29.803Z,99473.25
2022-08-19T01:40:34.097Z,99470.59
2022-08-19T01:41:36.133Z,99469.59
2022-08-19T01:42:37.992Z,99465.28
2022-08-19T01:44:03.165Z,99477.44
2022-08-19T01:45:01.370Z,99477.72
2022-08-19T01:46:04.432Z,99462.44
2022-08-19T01:47:06.242Z,99478.09
2022-08-19T01:48:08.422Z,99487.63
2022-08-19T01:49:11.139Z,99485.06
2022-08-19T01:50:14.234Z,99495.69
2022-08-19T01:51:16.343Z,99477.50
2022-08-19T01:52:17.866Z,99478.66
2022-08-19T01:53:19.486Z,99481.47
2022-08-19T01:54:27.790Z,99476.41
2022-08-19T01:55:29.761Z,99479.50
2022-08-19T01:56:31.398Z,99477.56
2022-08-19T01:57:33.330Z,99469.16
2022-08-19T01:58:47.043Z,99473.97
2022-08-19T01:59:48.689Z,99478.03
2022-08-19T02:00:50.234Z,99473.41
2022-08-19T02:01:51.895Z,99469.66
2022-08-19T02:02:53.611Z,99473.72
2022-08-19T02:03:56.931Z,99471.78
2022-08-19T02:05:00.172Z,99475.13
2022-08-19T02:06:03.932Z,99494.56
2022-08-19T02:07:08.865Z,99475.13
2022-08-19T02:08:11.605Z,99484.94
2022-08-19T02:09:13.240Z,99485.03
2022-08-19T02:10:21.964Z,99490.25
2022-08-19T02:11:28.613Z,99479.63
2022-08-19T02:12:30.427Z,99481.44
2022-08-19T02:13:33.630Z,99476.78
2022-08-19T02:14:36.707Z,99478.31
2022-08-19T02:15:38.938Z,99481.84
2022-08-19T02:16:41.110Z,99478.19
2022-08-19T02:17:43.267Z,99475.66
2022-08-19T02:18:45.289Z,99476.53
2022-08-19T02:19:46.917Z,99473.88
2022-08-19T02:20:48.778Z,99472.06
2022-08-19T02:21:50.657Z,99474.00
2022-08-19T02:22:52.482Z,99459.97
2022-08-19T02:23:54.810Z,99472.56
2022-08-19T02:24:56.585Z,99468.25
2022-08-19T02:25:58.482Z,99471.72
2022-08-19T02:27:00.073Z,99467.41
2022-08-19T02:28:01.831Z,99465.69
2022-08-19T02:29:03.530Z,99469.34
2022-08-19T02:30:08.821Z,99475.75
2022-08-19T02:31:19.835Z,99476.72
2022-08-19T02:32:21.402Z,99473.66
2022-08-19T02:33:22.922Z,99483.41
2022-08-19T02:34:25.862Z,99473.19
2022-08-19T02:35:27.818Z,99472.47
2022-08-19T02:36:29.545Z,99487.88
2022-08-19T02:37:50.781Z,99474.00
2022-08-19T02:38:54.718Z,99434.91
2022-08-19T02:39:57.175Z,99480.31
2022-08-19T02:41:02.622Z,99479.31
2022-08-19T02:42:04.427Z,99469.09
2022-08-19T02:43:09.425Z,99427.59
2022-08-19T02:44:30.455Z,99470.47
2022-08-19T02:45:34.301Z,99478.59
2022-08-19T02:46:37.446Z,99476.66
2022-08-19T02:47:39.003Z,99473.19
2022-08-19T02:48:44.498Z,99478.34
2022-08-19T02:49:46.906Z,99474.59
2022-08-19T02:50:53.807Z,99467.50
2022-08-19T02:51:55.804Z,99474.47
2022-08-19T02:52:57.455Z,99468.34
2022-08-19T02:54:00.762Z,99479.78
2022-08-19T02:55:02.482Z,99470.00
2022-08-19T02:56:08.420Z,99476.16
2022-08-19T02:57:10.036Z,99471.81
2022-08-19T02:58:11.679Z,99482.31
2022-08-19T02:59:13.425Z,99480.75
2022-08-19T03:00:15.935Z,99481.59
2022-08-19T03:01:22.551Z,99485.38
2022-08-19T03:02:24.305Z,99469.84
2022-08-19T03:03:26.573Z,99474.16
2022-08-19T03:04:28.179Z,99479.22
2022-08-19T03:05:55.975Z,99474.00
2022-08-19T03:06:51.698Z,99481.97
2022-08-19T03:07:53.266Z,99486.47
2022-08-19T03:08:55.054Z,99483.91
2022-08-19T03:09:56.636Z,99481.25
2022-08-19T03:10:58.193Z,99484.91
2022-08-19T03:11:59.897Z,99475.25
2022-08-19T03:13:01.562Z,99474.16
2022-08-19T03:14:08.429Z,99462.38
2022-08-19T03:15:10.202Z,99474.47
2022-08-19T03:16:13.841Z,99483.13
2022-08-19T03:17:15.437Z,99482.88
2022-08-19T03:18:18.001Z,99482.72
2022-08-19T03:19:22.330Z,99476.72
2022-08-19T03:20:23.884Z,99481.63
2022-08-19T03:21:27.523Z,99484.28
2022-08-19T03:22:31.705Z,99483.31
2022-08-19T03:23:33.743Z,99483.31
2022-08-19T03:24:35.643Z,99485.00
2022-08-19T03:25:41.742Z,99489.50
2022-08-19T03:26:46.810Z,99473.97
2022-08-19T03:27:49.967Z,99484.19
2022-08-19T03:28:58.368Z,99480.69
2022-08-19T03:30:00.628Z,99481.53
2022-08-19T03:31:41.687Z,99482.34
2022-08-19T03:32:32.947Z,99483.06
2022-08-19T03:33:35.866Z,99483.31
2022-08-19T03:34:38.491Z,99486.25
2022-08-19T03:35:40.039Z,99489.03
2022-08-19T03:36:41.969Z,99490.69
2022-08-19T03:37:43.483Z,99491.44
2022-08-19T03:38:48.931Z,99455.25
2022-08-19T03:39:57.871Z,99488.63
2022-08-19T03:41:04.170Z,99451.59
2022-08-19T03:42:32.588Z,99496.84
2022-08-19T03:43:27.965Z,99489.03
2022-08-19T03:44:30.967Z,99494.19
2022-08-19T03:45:32.740Z,99485.47
2022-08-19T03:46:34.445Z,99498.81
2022-08-19T03:47:36.019Z,99502.44
2022-08-19T03:48:39.749Z,99493.63
2022-08-19T03:49:41.592Z,99463.41
2022-08-19T03:50:44.355Z,99499.91
2022-08-19T03:51:47.764Z,99488.72
2022-08-19T03:52:51.592Z,99484.50
2022-08-19T03:53:55.755Z,99497.94
2022-08-19T03:54:57.603Z,99491.22
2022-08-19T03:56:01.248Z,99492.22
2022-08-19T03:57:05.018Z,99489.81
2022-08-19T03:58:07.556Z,99485.06
2022-08-19T03:59:21.270Z,99491.50
2022-08-19T04:00:23.298Z,99487.16
2022-08-19T04:01:30.845Z,99497.06
2022-08-19T04:02:37.252Z,99489.22
2022-08-19T04:03:39.921Z,99486.56
2022-08-19T04:04:44.679Z,99486.72
2022-08-19T04:05:47.665Z,99497.19
2022-08-19T04:06:49.494Z,99505.16
2022-08-19T04:07:51.114Z,99464.34
2022-08-19T04:08:54.915Z,99494.53
2022-08-19T04:09:56.527Z,99501.78
2022-08-19T04:10:58.174Z,99511.56
2022-08-19T04:11:59.825Z,99508.34
2022-08-19T04:13:01.560Z,99508.47
2022-08-19T04:14:04.468Z,99491.50
2022-08-19T04:15:07.113Z,99504.84
2022-08-19T04:16:10.859Z,99504.97
2022-08-19T04:17:12.716Z,99508.47
2022-08-19T04:18:14.470Z,99497.91
2022-08-19T04:19:17.804Z,99508.00
2022-08-19T04:20:19.480Z,99510.78
2022-08-19T04:21:24.244Z,99510.78
2022-08-19T04:22:25.863Z,99508.41
2022-08-19T04:23:32.037Z,99510.47
2022-08-19T04:24:35.876Z,99512.00
2022-08-19T04:25:43.079Z,99505.03
2022-08-19T04:26:45.399Z,99507.81
2022-08-19T04:27:47.384Z,99504.34
2022-08-19T04:28:50.032Z,99502.50
2022-08-19T04:29:51.675Z,99498.28
2022-08-19T04:30:54.757Z,99496.75
2022-08-19T04:31:57.892Z,99490.16
2022-08-19T04:32:59.691Z,99496.75
2022-08-19T04:34:05.989Z,99488.44
2022-08-19T04:35:18.518Z,99495.78
2022-08-19T04:36:27.226Z,99507.09
2022-08-19T04:37:33.690Z,99506.38
2022-08-19T04:38:37.249Z,99506.38
2022-08-19T04:39:58.804Z,99509.03
2022-08-19T04:41:23.237Z,99508.09
2022-08-19T04:42:40.285Z,99497.34
2022-08-19T04:43:41.965Z,99496.38
2022-08-19T04:44:46.407Z,99499.84
2022-08-19T04:45:48.295Z,99496.63
2022-08-19T04:46:51.947Z,99499.03
2022-08-19T04:47:58.891Z,99501.94
2022-08-19T04:49:23.796Z,99506.72
2022-08-19T04:50:28.467Z,99509.97
2022-08-19T04:51:32.139Z,99516.81
2022-08-19T04:52:33.981Z,99522.94
2022-08-19T04:53:38.219Z,99520.75
2022-08-19T04:54:40.102Z,99525.66
2022-08-19T04:55:42.754Z,99535.31
2022-08-19T04:56:44.805Z,99534.34
2022-08-19T04:57:53.766Z,99560.50
2022-08-19T04:58:57.122Z,99533.69
2022-08-19T04:59:58.852Z,99536.09
2022-08-19T05:01:03.244Z,99537.66
2022-08-19T05:02:05.287Z,99537.38
2022-08-19T05:03:07.759Z,99528.31
2022-08-19T05:04:10.091Z,99543.03
2022-08-19T05:05:11.979Z,99525.25
2022-08-19T05:06:15.768Z,99532.72
2022-08-19T05:07:17.690Z,99536.78
2022-08-19T05:08:31.280Z,99532.78
2022-08-19T05:09:57.896Z,99528.28
2022-08-19T05:10:54.847Z,99533.94
2022-08-19T05:11:56.377Z,99535.50
2022-08-19T05:12:58.717Z,99534.38
2022-08-19T05:14:00.707Z,99535.22
2022-08-19T05:15:06.665Z,99529.22
2022-08-19T05:16:08.305Z,99537.88
2022-08-19T05:17:27.040Z,99537.03
2022-08-19T05:18:47.972Z,99541.00
2022-08-19T05:20:08.040Z,99541.56
2022-08-19T05:21:30.583Z,99537.69
2022-08-19T05:22:38.247Z,99541.16
2022-08-19T05:23:39.906Z,99550.28
2022-08-19T05:25:02.476Z,99558.13
2022-08-19T05:26:03.602Z,99548.91
2022-08-19T05:27:06.595Z,99518.63
2022-08-19T05:28:08.215Z,99555.22
2022-08-19T05:29:11.113Z,99562.94
2022-08-19T05:30:12.941Z,99556.22
2022-08-19T05:31:14.830Z,99563.66
2022-08-19T05:32:16.842Z,99559.28
2022-08-19T05:33:19.477Z,99564.09
2022-08-19T05:34:24.094Z,99573.47
2022-08-19T05:35:25.689Z,99573.59
2022-08-19T05:36:29.028Z,99569.50
2022-08-19T05:37:30.943Z,99566.75
2022-08-19T05:38:36.701Z,99581.44
2022-08-19T05:39:38.937Z,99581.28
2022-08-19T05:40:40.927Z,99577.53
2022-08-19T05:41:44.545Z,99581.19
2022-08-19T05:42:46.557Z,99583.94
2022-08-19T05:44:03.720Z,99580.88
2022-08-19T05:45:05.755Z,99580.03
2022-08-19T05:46:08.170Z,99591.50
2022-08-19T05:47:09.851Z,99584.25
2022-08-19T05:48:12.334Z,99584.34
2022-08-19T05:49:16.136Z,99592.78
2022-08-19T05:50:18.525Z,99588.16
2022-08-19T05:51:20.158Z,99587.91
2022-08-19T05:52:25.368Z,99593.50
2022-08-19T05:53:27.556Z,99596.03
2022-08-19T05:54:29.180Z,99589.34
2022-08-19T05:55:31.053Z,99594.91
2022-08-19T05:56:33.086Z,99591.69
2022-08-19T05:57:34.665Z,99591.44
2022-08-19T05:58:37.583Z,99586.53
2022-08-19T05:59:39.309Z,99597.91
2022-08-19T06:00:43.537Z,99589.75
2022-08-19T06:01:47.176Z,99602.06
2022-08-19T06:02:48.834Z,99600.22
2022-08-19T06:03:50.500Z,99599.69
2022-08-19T06:04:52.059Z,99587.63
2022-08-19T06:05:54.092Z,99590.41
2022-08-19T06:06:57.213Z,99592.25
2022-08-19T06:08:02.038Z,99576.56
2022-08-19T06:09:08.488Z,99591.56
2022-08-19T06:10:11.940Z,99593.00
2022-08-19T06:11:22.626Z,99585.81
2022-08-19T06:12:29.658Z,99590.72
2022-08-19T06:13:33.397Z,99592.06
2022-08-19T06:14:41.787Z,99589.41
2022-08-19T06:15:45.352Z,99595.25
2022-08-19T06:16:47.011Z,99592.19
2022-08-19T06:17:48.811Z,99594.59
2022-08-19T06:18:55.010Z,99595.03
2022-08-19T06:19:57.378Z,99589.16
2022-08-19T06:20:59.048Z,99602.88
2022-08-19T06:22:01.234Z,99588.63
2022-08-19T06:23:03.935Z,99594.34
2022-08-19T06:24:07.492Z,99597.56
2022-08-19T06:25:12.657Z,99597.44
2022-08-19T06:26:16.308Z,99603.44
2022-08-19T06:27:17.955Z,99601.22
2022-08-19T06:28:19.698Z,99605.28
2022-08-19T06:29:24.784Z,99604.03
2022-08-19T06:30:26.650Z,99610.22
2022-08-19T06:31:30.161Z,99612.56
2022-08-19T06:32:31.847Z,99609.78
2022-08-19T06:33:33.375Z,99610.47
2022-08-19T06:34:35.878Z,99603.03
2022-08-19T06:35:41.970Z,99609.91
2022-08-19T06:36:46.373Z,99612.44
2022-08-19T06:37:48.097Z,99615.66
2022-08-19T06:38:49.635Z,99607.41
2022-08-19T06:39:51.574Z,99599.94
2022-08-19T06:41:07.979Z,99613.56
2022-08-19T06:42:17.081Z,99605.13
2022-08-19T06:43:19.508Z,99614.53
2022-08-19T06:44:25.834Z,99618.88
2022-08-19T06:45:34.448Z,99608.09
2022-08-19T06:46:38.926Z,99607.66
2022-08-19T06:47:44.831Z,99604.59
2022-08-19T06:48:47.715Z,99609.22
2022-08-19T06:49:49.265Z,99609.91
2022-08-19T06:50:52.463Z,99604.31
2022-08-19T06:51:54.318Z,99608.50
2022-08-19T06:52:56.180Z,99608.94
2022-08-19T06:53:58.084Z,99610.75
2022-08-19T06:55:00.191Z,99613.97
2022-08-19T06:56:03.173Z,99615.66
2022-08-19T06:57:05.031Z,99609.06
2022-08-19T06:58:06.801Z,99613.97
2022-08-19T06:59:11.985Z,99614.38
2022-08-19T07:00:17.109Z,99609.22
2022-08-19T07:01:19.804Z,99606.56
2022-08-19T07:02:21.962Z,99619.75
2022-08-19T07:03:23.718Z,99620.28
2022-08-19T07:04:29.039Z,99616.66
2022-08-19T07:05:30.743Z,99619.06
2022-08-19T07:06:43.904Z,99612.88
2022-08-19T07:07:47.592Z,99603.75
2022-08-19T07:08:49.507Z,99621.97
2022-08-19T07:09:59.075Z,99613.56
2022-08-19T07:11:01.877Z,99609.91
2022-08-19T07:12:13.124Z,99621.97
2022-08-19T07:13:15.023Z,99619.13
2022-08-19T07:14:20.029Z,99602.72
2022-08-19T07:15:22.201Z,99617.06
2022-08-19T07:16:27.983Z,99604.44
2022-08-19T07:17:31.133Z,99612.97
2022-08-19T07:18:33.012Z,99621.06
2022-08-19T07:19:35.509Z,99611.44
2022-08-19T07:20:38.094Z,99614.03
2022-08-19T07:21:41.097Z,99615.50
2022-08-19T07:22:42.770Z,99615.66
2022-08-19T07:23:44.976Z,99620.22
2022-08-19T07:24:51.121Z,99618.16
2022-08-19T07:25:53.469Z,99618.63
2022-08-19T07:27:01.255Z,99625.94
2022-08-19T07:28:03.051Z,99629.38
2022-08-19T07:29:04.670Z,99624.63
2022-08-19T07:30:07.397Z,99620.28
2022-08-19T07:31:18.445Z,99609.38
2022-08-19T07:32:22.064Z,99612.41
2022-08-19T07:33:23.677Z,99612.06
2022-08-19T07:34:26.713Z,99622.63
2022-08-19T07:35:29.407Z,99621.00
2022-08-19T07:36:33.113Z,99629.09
2022-08-19T07:37:37.954Z,99627.41
2022-08-19T07:38:41.863Z,99620.06
2022-08-19T07:39:43.510Z,99624.25
2022-08-19T07:40:47.071Z,99614.88
2022-08-19T07:41:49.224Z,99625.50
2022-08-19T07:42:50.859Z,99617.84
2022-08-19T07:43:54.104Z,99621.06
2022-08-19T07:44:55.715Z,99617.06
2022-08-19T07:45:57.730Z,99620.38
2022-08-19T07:47:01.008Z,99620.41
2022-08-19T07:48:03.022Z,99623.41
2022-08-19T07:49:07.730Z,99619.25
2022-08-19T07:50:12.367Z,99625.09
2022-08-19T07:51:36.084Z,99600.97
2022-08-19T07:52:40.508Z,99616.81
2022-08-19T07:53:44.215Z,99627.22
2022-08-19T07:54:45.788Z,99631.78
2022-08-19T07:55:47.890Z,99628.25
2022-08-19T07:56:52.494Z,99628.44
2022-08-19T07:57:54.598Z,99628.06
2022-08-19T08:00:05.491Z,99625.94
2022-08-19T08:01:10.812Z,99632.44
2022-08-19T08:02:12.405Z,99624.25
2022-08-19T08:03:16.652Z,99623.16
2022-08-19T08:04:38.559Z,99628.72
2022-08-19T08:05:59.377Z,99630.06
2022-08-19T08:07:19.378Z,99624.09
2022-08-19T08:08:36.479Z,99622.78
2022-08-19T08:09:42.459Z,99620.59
2022-08-19T08:10:44.300Z,99621.19
2022-08-19T08:12:02.065Z,99623.19
2022-08-19T08:13:09.335Z,99615.41
2022-08-19T08:14:29.518Z,99619.47
2022-08-19T08:15:40.031Z,99623.16
2022-08-19T08:16:47.014Z,99620.78
2022-08-19T08:17:51.640Z,99621.72
2022-08-19T08:18:53.462Z,99619.50
2022-08-19T08:19:55.787Z,99621.50
2022-08-19T08:20:58.336Z,99610.00
2022-08-19T08:22:02.094Z,99615.66
2022-08-19T08:23:22.680Z,99635.59
2022-08-19T08:24:28.683Z,99619.13
2022-08-19T08:25:32.530Z,99627.00
2022-08-19T08:26:36.058Z,99628.06
2022-08-19T08:27:42.124Z,99636.06
2022-08-19T08:28:47.867Z,99636.25
2022-08-19T08:29:50.019Z,99636.13
2022-08-19T08:30:52.943Z,99629.31
2022-08-19T08:31:59.679Z,99633.25
2022-08-19T08:33:02.587Z,99626.16
2022-08-19T08:34:04.613Z,99623.63
2022-08-19T08:35:08.587Z,99621.44
2022-08-19T08:36:10.276Z,99625.91
2022-08-19T08:37:11.851Z,99629.06
2022-08-19T08:38:14.416Z,99624.66
2022-08-19T08:39:19.541Z,99621.84
2022-08-19T08:40:28.808Z,99624.78
2022-08-19T08:41:50.148Z,99626.13
2022-08-19T08:43:07.315Z,99628.72
2022-08-19T08:44:24.351Z,99628.69
2022-08-19T08:45:29.972Z,99625.78
2022-08-19T08:46:54.659Z,99621.28
2022-08-19T08:48:02.790Z,99624.34
2022-08-19T08:49:17.928Z,99623.25
2022-08-19T08:50:26.560Z,99626.31
2022-08-19T08:51:35.190Z,99628.81
2022-08-19T08:52:43.681Z,99625.81
2022-08-19T08:53:48.208Z,99630.81
2022-08-19T08:54:55.516Z,99626.56
2022-08-19T08:55:57.453Z,99637.22
2022-08-19T08:56:59.632Z,99641.09
2022-08-19T08:58:15.005Z,99642.31
2022-08-19T08:59:33.262Z,99642.75
2022-08-19T09:00:39.135Z,99641.47
2022-08-19T09:01:40.878Z,99631.53
2022-08-19T09:02:43.542Z,99638.75
2022-08-19T09:03:46.384Z,99633.78
2022-08-19T09:04:48.117Z,99635.19
2022-08-19T09:06:04.363Z,99633.78
2022-08-19T09:07:34.827Z,99639.66
2022-08-19T09:08:49.288Z,99638.41
2022-08-19T09:09:58.107Z,99638.81
2022-08-19T09:11:05.650Z,99643.97
2022-08-19T09:12:36.704Z,99627.69
2022-08-19T09:13:59.147Z,99640.75
2022-08-19T09:15:13.007Z,99639.59
2022-08-19T09:16:21.825Z,99636.88
2022-08-19T09:17:32.277Z,99633.50
2022-08-19T09:18:42.949Z,99638.63
2022-08-19T09:19:50.180Z,99642.97
2022-08-19T09:20:51.855Z,99640.28
2022-08-19T09:21:53.806Z,99641.59
2022-08-19T09:22:59.492Z,99642.72
2022-08-19T09:24:05.526Z,99631.88
2022-08-19T09:25:09.975Z,99641.81
2022-08-19T09:26:17.415Z,99646.50
2022-08-19T09:27:22.188Z,99644.75
2022-08-19T09:28:48.940Z,99637.78
2022-08-19T09:29:51.531Z,99635.91
2022-08-19T09:30:56.512Z,99631.50
2022-08-19T09:31:58.124Z,99637.38
2022-08-19T09:33:00.117Z,99628.06
2022-08-19T09:34:04.667Z,99634.72
2022-08-19T09:35:08.760Z,99637.34
2022-08-19T09:36:14.225Z,99635.13
2022-08-19T09:37:26.014Z,99635.63
2022-08-19T09:38:27.581Z,99627.25
2022-08-19T09:39:35.866Z,99627.66
2022-08-19T09:40:38.584Z,99632.66
2022-08-19T09:41:40.282Z,99639.22
2022-08-19T09:42:49.950Z,99630.72
2022-08-19T09:43:54.747Z,99626.34
2022-08-19T09:44:56.328Z,99631.22
2022-08-19T09:45:58.196Z,99636.28
2022-08-19T09:47:01.185Z,99637.38
2022-08-19T09:48:03.820Z,99638.31
2022-08-19T09:49:07.349Z,99639.94
2022-08-19T09:50:12.314Z,99645.31
2022-08-19T09:51:23.555Z,99632.94
2022-08-19T09:52:25.258Z,99637.81
2022-08-19T09:53:34.635Z,99633.50
2022-08-19T09:54:39.850Z,99626.19
2022-08-19T09:55:45.951Z,99643.34
2022-08-19T09:56:47.865Z,99642.84
2022-08-19T09:57:49.427Z,99637.75
2022-08-19T09:58:51.045Z,99634.84
2022-08-19T09:59:52.630Z,99632.66
2022-08-19T10:00:56.223Z,99633.75
2022-08-19T10:02:04.036Z,99640.72
2022-08-19T10:03:12.657Z,99631.31
2022-08-19T10:04:20.434Z,99624.09
2022-08-19T10:05:42.913Z,99632.47
2022-08-19T10:06:46.403Z,99633.69
2022-08-19T10:07:48.929Z,99626.84
2022-08-19T10:08:52.582Z,99639.84
2022-08-19T10:09:54.242Z,99634.19
2022-08-19T10:10:56.914Z,99633.34
2022-08-19T10:12:02.594Z,99632.28
2022-08-19T10:13:04.896Z,99638.91
2022-08-19T10:14:07.237Z,99641.75
2022-08-19T10:15:09.403Z,99631.22
2022-08-19T10:16:14.504Z,99625.72
2022-08-19T10:17:20.785Z,99626.53
2022-08-19T10:18:26.299Z,99628.28
2022-08-19T10:19:31.027Z,99633.09
2022-08-19T10:20:32.865Z,99638.47
2022-08-19T10:21:35.357Z,99643.34
2022-08-19T10:22:38.360Z,99639.81
2022-08-19T10:23:46.041Z,99637.13
2022-08-19T10:24:48.135Z,99632.31
2022-08-19T10:25:50.754Z,99637.50
2022-08-19T10:26:58.771Z,99634.88
2022-08-19T10:28:01.691Z,99631.78
2022-08-19T10:29:05.753Z,99629.28
2022-08-19T10:30:10.088Z,99633.97
2022-08-19T10:31:16.048Z,99627.78
2022-08-19T10:32:28.432Z,99642.69
2022-08-19T10:33:53.176Z,99629.63
2022-08-19T10:34:57.088Z,99624.25
2022-08-19T10:36:05.534Z,99621.25
2022-08-19T10:37:10.745Z,99626.09
2022-08-19T10:38:12.506Z,99629.56
2022-08-19T10:39:14.076Z,99625.25
2022-08-19T10:40:15.825Z,99621.19
2022-08-19T10:41:23.294Z,99626.38
2022-08-19T10:42:25.079Z,99621.50
2022-08-19T10:43:26.773Z,99626.03
2022-08-19T10:44:32.328Z,99618.81
2022-08-19T10:45:34.412Z,99621.41
2022-08-19T10:46:48.975Z,99621.84
2022-08-19T10:47:51.964Z,99616.44
2022-08-19T10:48:55.008Z,99624.53
2022-08-19T10:50:15.425Z,99617.22
2022-08-19T10:51:36.513Z,99624.41
2022-08-19T10:52:50.816Z,99610.75
2022-08-19T10:53:52.775Z,99615.78
2022-08-19T10:55:13.029Z,99613.66
2022-08-19T10:56:33.572Z,99606.53
2022-08-19T10:58:58.444Z,99602.88
2022-08-19T10:59:59.975Z,99603.22
2022-08-19T11:01:04.184Z,99598.56
2022-08-19T11:02:10.532Z,99597.66
2022-08-19T11:03:12.241Z,99603.44
2022-08-19T11:04:14.744Z,99602.91
2022-08-19T11:05:18.030Z,99604.66
2022-08-19T11:06:21.488Z,99599.59
2022-08-19T11:07:26.104Z,99595.34
2022-08-19T11:08:27.831Z,99595.34
2022-08-19T11:09:34.078Z,99601.41
2022-08-19T11:10:37.396Z,99595.03
2022-08-19T11:11:41.779Z,99598.66
2022-08-19T11:12:43.369Z,99588.63
2022-08-19T11:13:46.838Z,99595.69
2022-08-19T11:14:50.757Z,99592.59
2022-08-19T11:16:07.674Z,99585.38
2022-08-19T11:17:09.675Z,99570.44
2022-08-19T11:18:13.209Z,99587.13
2022-08-19T11:19:17.985Z,99582.59
2022-08-19T11:20:19.656Z,99582.03
2022-08-19T11:21:32.554Z,99583.22
2022-08-19T11:22:40.597Z,99586.72
2022-08-19T11:23:44.429Z,99576.84
2022-08-19T11:24:46.084Z,99580.75
2022-08-19T11:25:47.659Z,99581.88
2022-08-19T11:26:51.239Z,99579.81
2022-08-19T11:27:53.224Z,99575.28
2022-08-19T11:28:55.976Z,99569.56
2022-08-19T11:29:57.569Z,99578.59
2022-08-19T11:30:59.386Z,99566.19
2022-08-19T11:32:04.276Z,99568.97
2022-08-19T11:33:05.884Z,99564.66
2022-08-19T11:34:13.204Z,99570.03
2022-08-19T11:35:15.184Z,99563.19
2022-08-19T11:36:17.370Z,99578.69
2022-08-19T11:37:19.069Z,99574.97
2022-08-19T11:38:20.737Z,99574.81
2022-08-19T11:39:23.440Z,99570.22
2022-08-19T11:40:25.055Z,99571.59
2022-08-19T11:41:27.204Z,99577.59
2022-08-19T11:42:47.555Z,99576.03
2022-08-19T11:43:53.905Z,99577.81
2022-08-19T11:44:55.788Z,99587.00
2022-08-19T11:45:58.887Z,99586.41
2022-08-19T11:47:08.893Z,99575.31
2022-08-19T11:48:11.150Z,99585.84
2022-08-19T11:49:14.527Z,99571.91
2022-08-19T11:50:17.479Z,99584.34
2022-08-19T11:51:22.642Z,99577.75
2022-08-19T11:52:24.258Z,99569.06
2022-08-19T11:53:26.197Z,99526.19
2022-08-19T11:54:27.812Z,99574.22
2022-08-19T11:55:29.433Z,99573.00
2022-08-19T11:56:31.129Z,99566.03
2022-08-19T11:57:33.480Z,99579.09
2022-08-19T11:58:36.088Z,99586.06
2022-08-19T11:59:37.771Z,99579.31
2022-08-19T12:00:39.950Z,99580.75
2022-08-19T12:01:44.961Z,99582.22
2022-08-19T12:02:46.999Z,99572.25
2022-08-19T12:03:50.760Z,99584.97
2022-08-19T12:04:52.511Z,99571.91
2022-08-19T12:05:54.441Z,99576.00
2022-08-19T12:06:56.285Z,99586.91
2022-08-19T12:07:57.884Z,99580.84
2022-08-19T12:09:02.668Z,99538.34
2022-08-19T12:10:04.674Z,99581.06
2022-08-19T12:11:08.882Z,99601.75
2022-08-19T12:12:10.931Z,99595.91
2022-08-19T12:13:19.247Z,99597.44
2022-08-19T12:14:20.804Z,99589.53
2022-08-19T12:15:22.734Z,99586.09
2022-08-19T12:16:27.771Z,99586.16
2022-08-19T12:17:31.762Z,99584.63
2022-08-19T12:18:34.153Z,99592.88
2022-08-19T12:19:37.696Z,99586.84
2022-08-19T12:20:41.089Z,99598.75
2022-08-19T12:21:42.767Z,99590.75
2022-08-19T12:22:44.463Z,99590.31
2022-08-19T12:23:46.383Z,99595.72
2022-08-19T12:24:51.608Z,99603.91
2022-08-19T12:25:53.262Z,99585.63
2022-08-19T12:26:56.319Z,99601.75
2022-08-19T12:28:03.811Z,99595.28
2022-08-19T12:29:06.760Z,99595.38
2022-08-19T12:30:11.198Z,99595.03
2022-08-19T12:31:13.091Z,99596.06
2022-08-19T12:32:14.749Z,99594.25
2022-08-19T12:33:16.917Z,99593.53
2022-08-19T12:34:20.701Z,99592.34
2022-08-19T12:35:22.766Z,99587.94
2022-08-19T12:36:25.729Z,99588.81
2022-08-19T12:37:27.480Z,99592.72
2022-08-19T12:38:29.834Z,99592.72
2022-08-19T12:39:34.536Z,99602.22
2022-08-19T12:40:36.187Z,99594.34
2022-08-19T12:41:38.299Z,99589.69
2022-08-19T12:42:55.813Z,99592.38
2022-08-19T12:43:57.475Z,99589.69
2022-08-19T12:44:59.098Z,99592.69
2022-08-19T12:46:00.622Z,99588.59